createdAt,value
2022-07-25T00:01:43.708Z,51.60
2022-07-25T00:04:12.159Z,51.30
2022-07-25T00:06:39.538Z,51.00
2022-07-25T00:09:06.371Z,50.70
2022-07-25T00:11:34.299Z,50.40
2022-07-25T00:14:00.993Z,50.00
2022-07-25T00:16:27.722Z,49.90
2022-07-25T00:18:54.500Z,50.20
2022-07-25T00:21:21.225Z,50.30
2022-07-25T00:23:47.939Z,50.40
2022-07-25T00:26:17.781Z,50.60
2022-07-25T00:28:44.451Z,50.70
2022-07-25T00:31:11.275Z,50.80
2022-07-25T00:33:39.916Z,50.90
2022-07-25T00:36:07.709Z,51.00
2022-07-25T00:38:34.442Z,51.10
2022-07-25T00:41:01.150Z,51.20
2022-07-25T00:43:27.925Z,51.20
2022-07-25T00:45:54.811Z,51.20
2022-07-25T00:48:23.094Z,51.20
2022-07-25T00:50:49.849Z,50.80
2022-07-25T00:53:16.634Z,50.60
2022-07-25T00:55:43.353Z,50.20
2022-07-25T00:58:10.039Z,49.90
2022-07-25T01:00:36.788Z,49.70
2022-07-25T01:03:03.535Z,49.90
2022-07-25T01:05:30.279Z,49.80
2022-07-25T01:07:57.530Z,50.00
2022-07-25T01:10:24.252Z,50.20
2022-07-25T01:12:51.824Z,50.20
2022-07-25T01:15:22.131Z,50.50
2022-07-25T01:17:49.201Z,50.50
2022-07-25T01:20:19.454Z,50.70
2022-07-25T01:22:46.327Z,50.70
2022-07-25T01:25:13.357Z,50.80
2022-07-25T01:27:40.473Z,50.90
2022-07-25T01:30:07.796Z,51.60
2022-07-25T01:32:34.714Z,51.00
2022-07-25T01:35:01.639Z,50.80
2022-07-25T01:37:28.327Z,50.60
2022-07-25T01:39:55.095Z,50.30
2022-07-25T01:42:21.890Z,49.90
2022-07-25T01:44:48.642Z,49.70
2022-07-25T01:47:17.223Z,49.50
2022-07-25T01:49:44.316Z,49.60
2022-07-25T01:52:11.429Z,50.30
2022-07-25T01:54:38.437Z,49.80
2022-07-25T01:57:05.199Z,49.70
2022-07-25T01:59:32.801Z,49.90
2022-07-25T02:01:59.601Z,50.20
2022-07-25T02:04:26.448Z,50.20
2022-07-25T02:06:53.223Z,50.20
2022-07-25T02:09:19.957Z,50.30
2022-07-25T02:11:46.690Z,50.40
2022-07-25T02:14:13.397Z,50.50
2022-07-25T02:16:40.198Z,51.10
2022-07-25T02:19:07.028Z,50.50
2022-07-25T02:21:33.835Z,50.50
2022-07-25T02:24:00.574Z,50.40
2022-07-25T02:26:27.650Z,50.10
2022-07-25T02:28:54.329Z,49.80
2022-07-25T02:31:21.106Z,49.60
2022-07-25T02:33:47.835Z,49.10
2022-07-25T02:36:14.565Z,49.20
2022-07-25T02:38:41.328Z,49.30
2022-07-25T02:41:08.149Z,49.30
2022-07-25T02:43:34.876Z,49.50
2022-07-25T02:46:01.678Z,49.70
2022-07-25T02:48:28.508Z,50.30
2022-07-25T02:50:55.321Z,49.90
2022-07-25T02:53:40.291Z,49.90
2022-07-25T02:56:08.750Z,50.00
2022-07-25T02:58:35.527Z,50.10
2022-07-25T03:01:06.174Z,50.20
2022-07-25T03:03:32.960Z,50.30
2022-07-25T03:06:00.241Z,50.30
2022-07-25T03:08:27.270Z,50.30
2022-07-25T03:10:53.987Z,50.20
2022-07-25T03:13:20.676Z,50.00
2022-07-25T03:15:47.418Z,49.70
2022-07-25T03:18:14.125Z,49.30
2022-07-25T03:20:41.265Z,49.00
2022-07-25T03:23:07.978Z,48.90
2022-07-25T03:25:34.665Z,49.10
2022-07-25T03:28:02.327Z,49.10
2022-07-25T03:30:29.064Z,49.30
2022-07-25T03:32:55.884Z,47.00
2022-07-25T03:35:22.671Z,46.70
2022-07-25T03:37:49.395Z,47.40
2022-07-25T03:40:16.223Z,48.30
2022-07-25T03:42:43.111Z,49.10
2022-07-25T03:45:09.988Z,49.80
2022-07-25T03:47:36.739Z,50.40
2022-07-25T03:50:03.766Z,51.00
2022-07-25T03:52:30.574Z,51.50
2022-07-25T03:54:57.350Z,51.90
2022-07-25T03:57:24.060Z,52.20
2022-07-25T03:59:50.746Z,52.50
2022-07-25T04:02:17.531Z,53.40
2022-07-25T04:04:44.311Z,53.00
2022-07-25T04:07:11.084Z,53.00
2022-07-25T04:09:37.858Z,52.80
2022-07-25T04:12:04.816Z,52.80
2022-07-25T04:14:31.542Z,52.60
2022-07-25T04:16:58.353Z,52.70
2022-07-25T04:19:26.240Z,52.90
2022-07-25T04:21:55.788Z,53.00
2022-07-25T04:24:22.536Z,53.10
2022-07-25T04:26:49.244Z,53.20
2022-07-25T04:29:16.159Z,53.30
2022-07-25T04:31:42.938Z,53.50
2022-07-25T04:34:10.020Z,53.30
2022-07-25T04:36:36.967Z,53.20
2022-07-25T04:39:03.727Z,53.10
2022-07-25T04:41:30.473Z,53.10
2022-07-25T04:43:57.212Z,53.20
2022-07-25T04:46:23.948Z,53.10
2022-07-25T04:48:50.858Z,53.20
2022-07-25T04:51:17.774Z,53.30
2022-07-25T04:53:44.653Z,53.50
2022-07-25T04:56:11.411Z,53.20
2022-07-25T04:58:38.175Z,53.30
2022-07-25T05:01:04.936Z,53.40
2022-07-25T05:03:31.718Z,53.50
2022-07-25T05:05:58.472Z,53.80
2022-07-25T05:08:25.179Z,54.60
2022-07-25T05:10:51.944Z,53.80
2022-07-25T05:13:20.815Z,53.90
2022-07-25T05:15:47.647Z,53.90
2022-07-25T05:18:14.367Z,53.80
2022-07-25T05:20:41.305Z,53.10
2022-07-25T05:23:08.013Z,52.80
2022-07-25T05:25:34.733Z,52.00
2022-07-25T05:28:02.962Z,51.50
2022-07-25T05:30:29.734Z,51.00
2022-07-25T05:32:56.447Z,50.50
2022-07-25T05:35:23.174Z,50.20
2022-07-25T05:37:49.968Z,50.20
2022-07-25T05:40:16.807Z,50.00
2022-07-25T05:42:43.542Z,50.00
2022-07-25T05:45:10.303Z,50.20
2022-07-25T05:47:37.055Z,50.10
2022-07-25T05:50:03.914Z,50.30
2022-07-25T05:52:30.657Z,50.30
2022-07-25T05:54:57.361Z,50.30
2022-07-25T05:57:24.074Z,50.40
2022-07-25T05:59:50.966Z,50.30
2022-07-25T06:02:17.842Z,50.40
2022-07-25T06:04:45.137Z,50.40
2022-07-25T06:07:11.939Z,50.40
2022-07-25T06:09:43.656Z,50.40
2022-07-25T06:12:10.393Z,50.40
2022-07-25T06:14:40.228Z,50.70
2022-07-25T06:17:06.949Z,49.80
2022-07-25T06:19:33.666Z,49.70
2022-07-25T06:22:00.362Z,49.60
2022-07-25T06:24:27.094Z,49.70
2022-07-25T06:26:53.783Z,50.40
2022-07-25T06:29:20.501Z,49.80
2022-07-25T06:31:47.580Z,50.00
2022-07-25T06:34:14.539Z,50.00
2022-07-25T06:36:41.269Z,50.00
2022-07-25T06:39:08.001Z,50.10
2022-07-25T06:41:34.973Z,50.10
2022-07-25T06:44:02.609Z,50.30
2022-07-25T06:46:31.601Z,50.10
2022-07-25T06:48:58.911Z,50.00
2022-07-25T06:51:25.829Z,49.70
2022-07-25T06:53:52.887Z,49.40
2022-07-25T06:56:19.650Z,49.10
2022-07-25T06:58:46.399Z,49.00
2022-07-25T07:01:13.156Z,49.20
2022-07-25T07:03:40.580Z,49.30
2022-07-25T07:06:07.900Z,49.30
2022-07-25T07:08:34.728Z,49.60
2022-07-25T07:11:01.548Z,49.60
2022-07-25T07:13:28.299Z,49.80
2022-07-25T07:15:55.904Z,49.90
2022-07-25T07:18:22.755Z,49.80
2022-07-25T07:20:49.446Z,50.00
2022-07-25T07:23:17.006Z,50.00
2022-07-25T07:25:46.150Z,50.10
2022-07-25T07:28:12.892Z,50.10
2022-07-25T07:31:13.513Z,50.20
2022-07-25T07:33:26.412Z,50.10
2022-07-25T07:35:55.971Z,49.80
2022-07-25T07:38:23.361Z,49.50
2022-07-25T07:40:50.083Z,49.20
2022-07-25T07:43:16.826Z,49.00
2022-07-25T07:45:43.627Z,48.90
2022-07-25T07:48:10.332Z,49.10
2022-07-25T07:50:37.123Z,49.20
2022-07-25T07:53:03.910Z,49.40
2022-07-25T07:55:46.086Z,49.40
2022-07-25T07:58:15.683Z,49.60
2022-07-25T08:00:42.952Z,49.60
2022-07-25T08:03:09.986Z,49.80
2022-07-25T08:05:38.514Z,49.80
2022-07-25T08:08:05.922Z,49.90
2022-07-25T08:10:33.392Z,50.00
2022-07-25T08:13:00.212Z,50.00
2022-07-25T08:15:26.953Z,50.10
2022-07-25T08:17:53.767Z,50.10
2022-07-25T08:20:37.615Z,50.00
2022-07-25T08:23:05.397Z,49.70
2022-07-25T08:25:32.183Z,49.40
2022-07-25T08:27:59.110Z,49.60
2022-07-25T08:30:25.841Z,48.90
2022-07-25T08:32:53.286Z,48.90
2022-07-25T08:35:20.338Z,49.00
2022-07-25T08:37:47.304Z,49.20
2022-07-25T08:40:14.291Z,49.30
2022-07-25T08:42:41.044Z,49.40
2022-07-25T08:45:08.508Z,49.50
2022-07-25T08:47:35.548Z,49.60
2022-07-25T08:50:04.577Z,49.70
2022-07-25T08:52:35.202Z,49.80
2022-07-25T08:55:03.021Z,49.80
2022-07-25T08:57:29.822Z,50.00
2022-07-25T08:59:57.308Z,50.60
2022-07-25T09:02:24.122Z,50.10
2022-07-25T09:04:50.966Z,50.20
2022-07-25T09:07:17.681Z,50.00
2022-07-25T09:09:44.705Z,49.80
2022-07-25T09:12:11.420Z,49.60
2022-07-25T09:14:43.912Z,49.80
2022-07-25T09:17:22.277Z,48.90
2022-07-25T09:19:54.414Z,48.90
2022-07-25T09:22:21.141Z,49.10
2022-07-25T09:24:48.145Z,49.10
2022-07-25T09:27:15.191Z,49.40
2022-07-25T09:29:45.462Z,49.50
2022-07-25T09:32:16.105Z,49.60
2022-07-25T09:34:43.137Z,49.70
2022-07-25T09:37:13.511Z,49.80
2022-07-25T09:39:49.891Z,49.90
2022-07-25T09:42:24.147Z,49.90
2022-07-25T09:44:57.488Z,50.10
2022-07-25T09:47:24.193Z,50.00
2022-07-25T09:49:50.997Z,50.00
2022-07-25T09:52:17.944Z,49.70
2022-07-25T09:54:44.756Z,49.50
2022-07-25T09:57:11.552Z,49.10
2022-07-25T09:59:38.417Z,48.80
2022-07-25T10:02:07.281Z,48.80
2022-07-25T10:04:42.134Z,48.80
2022-07-25T10:07:09.882Z,49.60
2022-07-25T10:09:43.821Z,49.20
2022-07-25T10:12:10.859Z,49.30
2022-07-25T10:14:37.724Z,49.50
2022-07-25T10:17:04.672Z,49.50
2022-07-25T10:19:47.240Z,49.70
2022-07-25T10:22:18.590Z,49.90
2022-07-25T10:24:49.694Z,49.80
2022-07-25T10:27:23.225Z,50.00
2022-07-25T10:29:54.302Z,49.80
2022-07-25T10:32:25.224Z,49.60
2022-07-25T10:34:52.531Z,49.30
2022-07-25T10:37:19.337Z,48.90
2022-07-25T10:39:46.118Z,48.70
2022-07-25T10:42:13.475Z,48.70
2022-07-25T10:44:44.231Z,48.80
2022-07-25T10:47:12.161Z,49.00
2022-07-25T10:49:46.429Z,49.70
2022-07-25T10:52:21.843Z,49.30
2022-07-25T10:54:55.542Z,49.40
2022-07-25T10:57:22.417Z,49.50
2022-07-25T10:59:49.194Z,49.60
2022-07-25T11:02:19.293Z,49.90
2022-07-25T11:04:58.782Z,49.80
2022-07-25T11:07:25.736Z,49.90
2022-07-25T11:09:59.211Z,49.60
2022-07-25T11:12:26.075Z,49.30
2022-07-25T11:14:56.044Z,49.10
2022-07-25T11:17:23.423Z,48.80
2022-07-25T11:20:01.199Z,48.90
2022-07-25T11:22:28.318Z,49.00
2022-07-25T11:24:55.172Z,49.10
2022-07-25T11:27:21.889Z,49.30
2022-07-25T11:29:48.565Z,49.40
2022-07-25T11:32:15.484Z,49.50
2022-07-25T11:34:44.015Z,49.60
2022-07-25T11:37:11.352Z,49.80
2022-07-25T11:39:38.648Z,49.90
2022-07-25T11:42:06.276Z,49.90
2022-07-25T11:44:33.087Z,50.00
2022-07-25T11:46:59.819Z,49.80
2022-07-25T11:49:26.671Z,49.50
2022-07-25T11:51:53.549Z,49.20
2022-07-25T11:54:20.325Z,48.80
2022-07-25T11:56:47.364Z,48.80
2022-07-25T11:59:15.257Z,48.90
2022-07-25T12:01:42.471Z,49.10
2022-07-25T12:04:14.279Z,49.30
2022-07-25T12:06:48.668Z,49.30
2022-07-25T12:09:18.890Z,49.70
2022-07-25T12:11:47.037Z,49.70
2022-07-25T12:14:13.786Z,49.80
2022-07-25T12:16:40.581Z,49.90
2022-07-25T12:19:17.552Z,50.00
2022-07-25T12:21:44.346Z,49.80
2022-07-25T12:24:11.071Z,49.60
2022-07-25T12:26:37.934Z,49.30
2022-07-25T12:29:05.240Z,49.60
2022-07-25T12:31:32.246Z,48.80
2022-07-25T12:33:59.370Z,48.80
2022-07-25T12:36:26.107Z,49.60
2022-07-25T12:38:52.903Z,49.10
2022-07-25T12:41:22.806Z,49.20
2022-07-25T12:43:49.953Z,49.50
2022-07-25T12:46:16.918Z,49.60
2022-07-25T12:48:44.279Z,49.70
2022-07-25T12:51:11.818Z,49.80
2022-07-25T12:53:42.318Z,49.90
2022-07-25T12:56:09.529Z,50.00
2022-07-25T12:58:36.556Z,49.90
2022-07-25T13:01:03.804Z,49.70
2022-07-25T13:03:30.675Z,49.40
2022-07-25T13:05:57.371Z,49.10
2022-07-25T13:08:24.290Z,48.80
2022-07-25T13:10:51.198Z,48.80
2022-07-25T13:13:17.995Z,49.00
2022-07-25T13:15:44.765Z,49.10
2022-07-25T13:18:11.595Z,49.20
2022-07-25T13:20:39.509Z,49.50
2022-07-25T13:23:06.285Z,49.80
2022-07-25T13:25:33.982Z,49.70
2022-07-25T13:28:00.718Z,49.80
2022-07-25T13:30:27.673Z,49.90
2022-07-25T13:32:54.496Z,50.10
2022-07-25T13:35:23.393Z,50.00
2022-07-25T13:37:54.335Z,49.80
2022-07-25T13:40:21.169Z,49.50
2022-07-25T13:42:47.902Z,49.20
2022-07-25T13:45:14.673Z,48.90
2022-07-25T13:47:41.438Z,48.90
2022-07-25T13:50:08.327Z,49.10
2022-07-25T13:52:35.095Z,49.20
2022-07-25T13:55:01.972Z,49.40
2022-07-25T13:57:28.707Z,49.50
2022-07-25T13:59:55.455Z,49.60
2022-07-25T14:02:22.588Z,49.80
2022-07-25T14:04:49.401Z,49.70
2022-07-25T14:07:16.237Z,50.00
2022-07-25T14:09:42.940Z,50.00
2022-07-25T14:12:09.735Z,50.00
2022-07-25T14:14:36.991Z,49.80
2022-07-25T14:17:03.736Z,49.40
2022-07-25T14:19:30.517Z,49.20
2022-07-25T14:21:57.271Z,49.00
2022-07-25T14:24:24.002Z,49.00
2022-07-25T14:26:50.713Z,49.10
2022-07-25T14:29:17.452Z,49.20
2022-07-25T14:31:44.307Z,49.40
2022-07-25T14:34:11.138Z,49.50
2022-07-25T14:36:37.926Z,49.70
2022-07-25T14:39:05.203Z,50.00
2022-07-25T14:41:32.184Z,50.60
2022-07-25T14:43:59.619Z,50.80
2022-07-25T14:46:26.352Z,51.00
2022-07-25T14:48:54.261Z,50.60
2022-07-25T14:51:21.221Z,50.30
2022-07-25T14:53:53.013Z,50.00
2022-07-25T14:56:20.031Z,49.70
2022-07-25T14:58:46.746Z,49.40
2022-07-25T15:01:16.318Z,49.50
2022-07-25T15:03:43.116Z,49.60
2022-07-25T15:06:10.692Z,49.80
2022-07-25T15:08:39.274Z,50.00
2022-07-25T15:11:06.459Z,49.90
2022-07-25T15:13:33.323Z,50.10
2022-07-25T15:16:00.436Z,50.10
2022-07-25T15:18:27.482Z,50.30
2022-07-25T15:20:55.403Z,51.00
2022-07-25T15:23:24.851Z,50.30
2022-07-25T15:26:03.495Z,50.00
2022-07-25T15:28:34.202Z,50.00
2022-07-25T15:31:01.126Z,49.60
2022-07-25T15:33:27.949Z,49.20
2022-07-25T15:35:54.905Z,49.30
2022-07-25T15:38:21.883Z,49.40
2022-07-25T15:40:48.593Z,49.40
2022-07-25T15:43:15.373Z,49.60
2022-07-25T15:45:42.697Z,49.80
2022-07-25T15:48:09.678Z,49.90
2022-07-25T15:50:41.595Z,50.00
2022-07-25T15:53:08.459Z,50.70
2022-07-25T15:55:35.363Z,50.40
2022-07-25T15:58:02.266Z,50.40
2022-07-25T16:00:29.800Z,50.30
2022-07-25T16:02:57.063Z,50.70
2022-07-25T16:05:23.776Z,49.90
2022-07-25T16:07:50.483Z,49.80
2022-07-25T16:10:17.226Z,49.50
2022-07-25T16:12:43.944Z,49.60
2022-07-25T16:15:11.275Z,49.50
2022-07-25T16:17:38.082Z,49.80
2022-07-25T16:20:06.786Z,50.10
2022-07-25T16:22:33.878Z,50.20
2022-07-25T16:25:03.796Z,50.40
2022-07-25T16:27:30.538Z,50.50
2022-07-25T16:29:57.269Z,50.60
2022-07-25T16:32:24.045Z,50.80
2022-07-25T16:34:50.835Z,50.80
2022-07-25T16:37:17.670Z,50.60
2022-07-25T16:39:44.414Z,50.40
2022-07-25T16:42:11.143Z,50.10
2022-07-25T16:44:37.899Z,49.90
2022-07-25T16:47:04.722Z,49.50
2022-07-25T16:49:31.634Z,49.70
2022-07-25T16:51:58.338Z,49.60
2022-07-25T16:54:25.590Z,49.90
2022-07-25T16:56:54.246Z,50.00
2022-07-25T16:59:22.485Z,50.10
2022-07-25T17:01:49.280Z,50.40
2022-07-25T17:04:16.033Z,50.50
2022-07-25T17:06:42.733Z,51.30
2022-07-25T17:09:09.928Z,50.70
2022-07-25T17:11:37.105Z,50.70
2022-07-25T17:14:04.530Z,50.40
2022-07-25T17:16:31.757Z,50.10
2022-07-25T17:18:58.843Z,49.80
2022-07-25T17:21:25.597Z,49.60
2022-07-25T17:23:53.334Z,49.60
2022-07-25T17:26:20.632Z,49.60
2022-07-25T17:28:47.514Z,49.70
2022-07-25T17:31:14.515Z,50.10
2022-07-25T17:33:42.089Z,50.10
2022-07-25T17:36:09.678Z,50.20
2022-07-25T17:38:42.002Z,50.40
2022-07-25T17:41:09.100Z,50.50
2022-07-25T17:43:38.913Z,50.60
2022-07-25T17:46:11.283Z,50.60
2022-07-25T17:48:41.457Z,50.50
2022-07-25T17:51:16.441Z,50.10
2022-07-25T17:53:45.229Z,49.80
2022-07-25T17:56:14.740Z,49.60
2022-07-25T17:58:48.646Z,49.40
2022-07-25T18:01:20.598Z,49.40
2022-07-25T18:03:50.846Z,49.60
2022-07-25T18:06:29.884Z,49.70
2022-07-25T18:09:00.510Z,50.00
2022-07-25T18:11:33.490Z,50.00
2022-07-25T18:14:09.496Z,50.30
2022-07-25T18:16:44.098Z,50.40
2022-07-25T18:19:15.898Z,50.60
2022-07-25T18:21:48.314Z,50.60
2022-07-25T18:24:29.345Z,50.60
2022-07-25T18:27:15.335Z,50.50
2022-07-25T18:29:42.520Z,50.30
2022-07-25T18:32:28.064Z,50.10
2022-07-25T18:34:56.845Z,50.20
2022-07-25T18:37:23.629Z,49.90
2022-07-25T18:39:50.343Z,50.00
2022-07-25T18:42:17.066Z,50.10
2022-07-25T18:44:43.777Z,50.30
2022-07-25T18:47:10.824Z,50.40
2022-07-25T18:49:37.879Z,50.70
2022-07-25T18:52:07.967Z,50.80
2022-07-25T18:54:34.676Z,50.90
2022-07-25T18:57:02.764Z,51.10
2022-07-25T18:59:29.649Z,51.20
2022-07-25T19:01:56.406Z,51.30
2022-07-25T19:04:23.201Z,51.40
2022-07-25T19:06:49.928Z,51.50
2022-07-25T19:09:16.673Z,51.30
2022-07-25T19:11:43.390Z,51.00
2022-07-25T19:14:10.378Z,50.80
2022-07-25T19:16:37.364Z,50.50
2022-07-25T19:19:04.137Z,50.20
2022-07-25T19:21:30.893Z,50.20
2022-07-25T19:23:57.579Z,50.10
2022-07-25T19:26:24.333Z,50.40
2022-07-25T19:28:51.143Z,50.50
2022-07-25T19:31:17.964Z,50.70
2022-07-25T19:33:46.076Z,50.90
2022-07-25T19:36:13.346Z,51.00
2022-07-25T19:38:40.059Z,51.20
2022-07-25T19:41:07.265Z,51.20
2022-07-25T19:43:33.987Z,51.50
2022-07-25T19:46:00.714Z,51.50
2022-07-25T19:48:27.805Z,52.10
2022-07-25T19:50:54.562Z,51.60
2022-07-25T19:53:24.229Z,51.50
2022-07-25T19:55:54.834Z,51.30
2022-07-25T19:58:21.524Z,51.00
2022-07-25T20:00:48.253Z,50.80
2022-07-25T20:03:15.648Z,50.50
2022-07-25T20:05:42.420Z,50.20
2022-07-25T20:08:09.052Z,50.40
2022-07-25T20:10:35.658Z,50.70
2022-07-25T20:13:02.291Z,50.80
2022-07-25T20:15:28.968Z,51.00
2022-07-25T20:17:56.757Z,51.10
2022-07-25T20:20:23.515Z,51.30
2022-07-25T20:22:50.780Z,52.10
2022-07-25T20:25:17.397Z,52.00
2022-07-25T20:27:44.027Z,52.30
2022-07-25T20:30:10.993Z,52.70
2022-07-25T20:32:37.649Z,52.80
2022-07-25T20:35:04.544Z,52.60
2022-07-25T20:37:32.372Z,52.70
2022-07-25T20:39:59.141Z,52.50
2022-07-25T20:42:25.826Z,52.30
2022-07-25T20:44:52.473Z,52.20
2022-07-25T20:47:19.157Z,52.00
2022-07-25T20:49:45.786Z,51.40
2022-07-25T20:52:12.477Z,51.70
2022-07-25T20:54:39.990Z,51.50
2022-07-25T20:57:06.640Z,51.70
2022-07-25T20:59:33.292Z,52.10
2022-07-25T21:02:00.306Z,52.50
2022-07-25T21:04:27.011Z,52.60
2022-07-25T21:06:56.541Z,52.80
2022-07-25T21:09:23.461Z,53.10
2022-07-25T21:11:50.067Z,53.10
2022-07-25T21:14:16.708Z,53.40
2022-07-25T21:16:43.379Z,53.30
2022-07-25T21:19:10.480Z,53.50
2022-07-25T21:21:37.453Z,53.30
2022-07-25T21:24:04.115Z,53.30
2022-07-25T21:26:30.751Z,52.90
2022-07-25T21:28:57.389Z,53.40
2022-07-25T21:31:24.125Z,52.60
2022-07-25T21:33:50.819Z,52.30
2022-07-25T21:36:17.435Z,51.90
2022-07-25T21:38:44.145Z,52.20
2022-07-25T21:41:10.804Z,52.00
2022-07-25T21:43:37.466Z,52.20
2022-07-25T21:46:04.195Z,52.40
2022-07-25T21:48:49.627Z,52.50
2022-07-25T21:51:19.246Z,52.60
2022-07-25T21:53:50.886Z,52.70
2022-07-25T21:56:17.550Z,52.80
2022-07-25T21:58:44.203Z,52.80
2022-07-25T22:01:10.875Z,52.90
2022-07-25T22:03:37.543Z,53.00
2022-07-25T22:06:04.261Z,53.10
2022-07-25T22:08:30.951Z,53.10
2022-07-25T22:10:58.221Z,53.00
2022-07-25T22:13:28.301Z,52.90
2022-07-25T22:15:54.923Z,52.70
2022-07-25T22:18:21.935Z,52.50
2022-07-25T22:20:48.546Z,52.20
2022-07-25T22:23:15.150Z,51.80
2022-07-25T22:25:41.759Z,52.20
2022-07-25T22:28:09.409Z,51.90
2022-07-25T22:30:41.031Z,52.00
2022-07-25T22:33:07.651Z,52.80
2022-07-25T22:35:34.265Z,52.30
2022-07-25T22:38:00.894Z,52.40
2022-07-25T22:40:27.522Z,52.40
2022-07-25T22:42:54.118Z,52.50
2022-07-25T22:45:23.685Z,52.70
2022-07-25T22:47:50.573Z,52.70
2022-07-25T22:50:17.173Z,52.80
2022-07-25T22:52:43.775Z,52.70
2022-07-25T22:55:10.401Z,52.40
2022-07-25T22:57:37.727Z,52.50
2022-07-25T23:00:05.532Z,52.10
2022-07-25T23:02:32.185Z,51.70
2022-07-25T23:04:58.893Z,51.70
2022-07-25T23:07:25.615Z,51.70
2022-07-25T23:09:52.230Z,51.70
2022-07-25T23:12:18.829Z,51.80
2022-07-25T23:14:45.454Z,52.10
2022-07-25T23:17:18.203Z,52.10
2022-07-25T23:19:45.074Z,52.30
2022-07-25T23:22:11.692Z,52.40
2022-07-25T23:24:38.356Z,52.40
2022-07-25T23:27:05.187Z,52.60
2022-07-25T23:29:31.844Z,52.60
2022-07-25T23:31:58.522Z,52.60
2022-07-25T23:34:25.162Z,52.70
2022-07-25T23:36:51.782Z,52.50
2022-07-25T23:39:18.408Z,52.40
2022-07-25T23:41:45.104Z,52.00
2022-07-25T23:44:11.769Z,52.50
2022-07-25T23:46:38.711Z,52.40
2022-07-25T23:49:06.274Z,52.50
2022-07-25T23:51:33.198Z,52.50
2022-07-25T23:53:59.830Z,52.40
2022-07-25T23:56:26.435Z,52.90
2022-07-25T23:58:53.120Z,52.90
